Terminal Aerodrome Forecast
Issued by NWS Upton, NY

Home | Current Version | Previous Version | Text Only | Print | Product List | Glossary On
Versions: 1 2 3 4 5 6 7 8 9 10 11 12 13 14 15 16 17 18 19 20 21 22 23 24 25 26 27 28 29 30 31 32
000
FTUS41 KOKX 162300
TAFLGA
TAF
KLGA 162330Z 1700/1724 VRB04KT P6SM SCT040 BKN080
     FM170400 33007KT P6SM FEW060 FEW250
     FM171400 02007KT P6SM FEW250
     FM171900 18010KT P6SM SCT050 SCT250=

USA.gov is the U.S. government's official web portal to all federal, state and local government web resources and services.